Time;durP1;ratioP1;P1;durP2;ratioP2;P2;SDS_P1;SDS_P2;PMS_P1;PMS_P2;Temp;Humidity;BMP_temperature;BMP_pressure;BME280_temperature;BME280_humidity;BME280_pressure;Samples;Min_cycle;Max_cycle;Signal;HPM_P1;HPM_P2
2022/05/08 00:01:00;;;;;;;11.75;2.55;;;;;;;9.46;100.00;102024.25;4918662;29;20466;-77
2022/05/08 00:03:25;;;;;;;6.38;2.30;;;;;;;9.49;100.00;102026.63;4879415;29;20444;-78
2022/05/08 00:05:51;;;;;;;9.10;2.95;;;;;;;9.22;100.00;101971.28;4865070;29;20109;-78
2022/05/08 00:08:17;;;;;;;10.45;2.20;;;;;;;9.33;100.00;102000.53;4880386;29;20486;-77
2022/05/08 00:10:42;;;;;;;12.57;2.63;;;;;;;9.46;100.00;102026.94;4880358;29;20233;-77
2022/05/08 00:13:09;;;;;;;12.57;2.50;;;;;;;9.41;100.00;102027.44;4880653;29;20463;-77
2022/05/08 00:15:35;;;;;;;14.15;3.00;;;;;;;9.34;100.00;102032.63;4880075;29;20033;-77
2022/05/08 00:18:00;;;;;;;10.52;2.22;;;;;;;9.22;100.00;102011.56;4878803;29;20032;-78
2022/05/08 00:20:26;;;;;;;11.20;2.15;;;;;;;8.18;100.00;101859.50;4880451;29;20029;-78
2022/05/08 00:22:51;;;;;;;8.98;2.13;;;;;;;9.29;100.00;102024.19;4878294;29;20105;-78
2022/05/08 00:25:17;;;;;;;8.65;2.20;;;;;;;9.21;100.00;102032.22;4876462;29;20033;-78
2022/05/08 00:27:42;;;;;;;8.10;2.58;;;;;;;9.05;100.00;102021.38;4879048;29;20133;-78
2022/05/08 00:30:08;;;;;;;6.38;2.05;;;;;;;8.82;100.00;101995.06;4894177;29;20412;-78
2022/05/08 00:32:33;;;;;;;7.90;2.45;;;;;;;8.39;100.00;101956.56;4879413;29;20025;-77
2022/05/08 00:34:59;;;;;;;11.23;2.50;;;;;;;8.84;100.00;102035.16;4893697;29;20128;-77
2022/05/08 00:37:24;;;;;;;7.60;2.42;;;;;;;8.67;100.00;102021.63;4889463;29;20013;-79
2022/05/08 00:39:49;;;;;;;9.20;2.30;;;;;;;8.65;100.00;102044.28;4891548;29;20500;-78
2022/05/08 00:42:15;;;;;;;8.18;2.15;;;;;;;8.49;100.00;102038.78;4862965;29;20114;-78
2022/05/08 00:44:40;;;;;;;7.22;2.00;;;;;;;8.44;100.00;102036.53;4878634;29;20048;-78
2022/05/08 00:47:06;;;;;;;9.18;2.30;;;;;;;8.35;100.00;102040.13;4864133;29;20104;-77
2022/05/08 00:49:34;;;;;;;12.05;2.33;;;;;;;8.20;100.00;102021.06;4878782;29;20099;-77
2022/05/08 00:51:59;;;;;;;7.10;2.33;;;;;;;8.14;100.00;102017.13;4880412;29;20037;-77
2022/05/08 00:54:26;;;;;;;10.05;2.30;;;;;;;8.24;100.00;102042.06;4879534;29;20036;-78
2022/05/08 00:56:53;;;;;;;7.88;2.13;;;;;;;7.73;100.00;101956.94;4878300;29;20029;-78
2022/05/08 00:59:19;;;;;;;9.70;2.60;;;;;;;8.13;100.00;102050.31;4881187;29;20033;-78
2022/05/08 01:01:44;;;;;;;6.28;2.17;;;;;;;7.73;100.00;101994.47;4881070;29;20025;-78
2022/05/08 01:04:10;;;;;;;10.68;1.80;;;;;;;7.97;100.00;102040.25;4880161;29;20059;-78
2022/05/08 01:06:35;;;;;;;8.75;2.20;;;;;;;7.87;100.00;102027.94;4892986;29;20051;-78
2022/05/08 01:09:01;;;;;;;8.65;2.45;;;;;;;7.65;100.00;101999.72;4878818;29;20040;-77
2022/05/08 01:11:26;;;;;;;12.75;3.00;;;;;;;6.84;100.00;101877.31;4881593;29;20042;-78
2022/05/08 01:13:51;;;;;;;9.35;2.20;;;;;;;7.74;100.00;102045.19;4862940;29;20040;-77
2022/05/08 01:16:19;;;;;;;7.90;2.20;;;;;;;7.53;100.00;102024.03;4862854;29;20067;-78
2022/05/08 01:18:48;;;;;;;6.28;2.10;;;;;;;7.54;100.00;102049.81;4878170;29;20029;-78
2022/05/08 01:21:16;;;;;;;9.60;2.40;;;;;;;7.37;100.00;102037.22;4878121;29;20029;-77
2022/05/08 01:23:42;;;;;;;6.28;2.10;;;;;;;7.30;100.00;102053.03;4876612;29;20025;-77
2022/05/08 01:26:08;;;;;;;7.78;2.15;;;;;;;7.23;100.00;102054.63;4879095;29;20033;-78
2022/05/08 01:28:34;;;;;;;8.75;2.10;;;;;;;7.19;100.00;102065.78;4862638;29;20265;-77
2022/05/08 01:30:59;;;;;;;9.30;2.50;;;;;;;7.09;100.00;102055.09;4878056;29;20029;-77
2022/05/08 01:33:25;;;;;;;15.32;2.63;;;;;;;7.02;100.00;102062.88;4878577;29;20044;-77
2022/05/08 01:35:51;;;;;;;8.15;2.60;;;;;;;6.76;100.00;102035.03;4862793;29;20042;-77
2022/05/08 01:38:20;;;;;;;8.40;2.35;;;;;;;6.82;100.00;102067.41;4863800;29;20037;-77
2022/05/08 01:40:46;;;;;;;11.32;2.72;;;;;;;6.80;100.00;102073.91;4882722;29;20040;-77
2022/05/08 01:43:12;;;;;;;9.73;2.80;;;;;;;6.79;100.00;102069.53;4861772;29;20532;-77
2022/05/08 01:45:38;;;;;;;9.32;2.50;;;;;;;6.48;100.00;102034.09;4862739;29;20033;-77
2022/05/08 01:48:23;;;;;;;9.05;3.30;;;;;;;6.71;100.00;102075.59;4879023;29;20060;-77
2022/05/08 01:51:00;;;;;;;12.85;2.92;;;;;;;6.62;100.00;102078.25;4898088;29;20049;-77
2022/05/08 01:53:28;;;;;;;9.40;2.80;;;;;;;6.53;100.00;102088.84;4882861;29;20120;-78
2022/05/08 01:55:55;;;;;;;9.85;2.90;;;;;;;6.31;100.00;102049.00;4883426;29;20032;-77
2022/05/08 01:58:26;;;;;;;8.75;2.75;;;;;;;6.55;100.00;102091.34;4888839;29;20025;-77
2022/05/08 02:00:53;;;;;;;9.52;3.22;;;;;;;6.53;100.00;102088.84;4880402;29;20035;-77
2022/05/08 02:03:19;;;;;;;10.50;3.03;;;;;;;6.58;100.00;102075.03;4877071;29;20072;-77
2022/05/08 02:05:45;;;;;;;9.50;2.40;;;;;;;6.71;100.00;102091.63;4897565;29;20043;-77
2022/05/08 02:08:11;;;;;;;7.75;2.55;;;;;;;6.78;100.00;102090.06;4888436;29;20043;-77
2022/05/08 02:10:37;;;;;;;5.10;2.03;;;;;;;6.78;100.00;102095.41;4920502;29;20032;-77
2022/05/08 02:13:03;;;;;;;5.10;2.17;;;;;;;6.74;100.00;102087.84;4903129;29;20106;-77
2022/05/08 02:15:29;;;;;;;6.63;2.15;;;;;;;6.73;100.00;102103.03;4888299;29;20043;-77
2022/05/08 02:17:59;;;;;;;7.03;1.80;;;;;;;6.65;100.00;102081.50;4904692;29;20114;-79
2022/05/08 02:20:24;;;;;;;8.68;2.30;;;;;;;6.80;100.00;102106.00;4919703;29;20024;-77
2022/05/08 02:22:51;;;;;;;5.07;2.00;;;;;;;6.82;100.00;102098.66;4903915;29;20087;-77
2022/05/08 02:25:17;;;;;;;10.90;2.42;;;;;;;6.45;100.00;102039.72;4887071;29;20183;-77
2022/05/08 02:27:46;;;;;;;6.90;2.10;;;;;;;6.81;100.00;102094.28;4903515;29;20095;-77
2022/05/08 02:30:12;;;;;;;6.53;1.95;;;;;;;6.78;100.00;102100.78;4904148;29;20126;-77
2022/05/08 02:32:38;;;;;;;10.02;1.92;;;;;;;6.84;100.00;102115.41;4920344;29;20474;-77
2022/05/08 02:35:06;;;;;;;7.22;2.20;;;;;;;6.80;100.00;102114.03;4920325;29;20040;-77
2022/05/08 02:37:32;;;;;;;5.97;1.67;;;;;;;6.68;100.00;102093.75;4887195;29;20059;-77
2022/05/08 02:39:57;;;;;;;8.18;2.30;;;;;;;6.27;100.00;102053.78;4902874;29;20032;-77
2022/05/08 02:42:24;;;;;;;5.80;2.03;;;;;;;5.73;100.00;101969.66;4919259;29;20028;-77
2022/05/08 02:44:50;;;;;;;7.60;2.30;;;;;;;6.36;100.00;102078.84;4885946;29;20489;-77
2022/05/08 02:47:15;;;;;;;4.78;1.73;;;;;;;6.33;100.00;102079.13;4920088;29;20035;-77
2022/05/08 02:49:42;;;;;;;7.97;2.30;;;;;;;6.61;100.00;102124.72;4901859;29;20076;-77
2022/05/08 02:52:09;;;;;;;5.93;2.13;;;;;;;6.46;100.00;102114.47;4903501;29;20060;-77
2022/05/08 02:54:34;;;;;;;8.20;2.08;;;;;;;6.46;100.00;102127.00;4919327;29;20039;-77
2022/05/08 02:59:43;;;;;;;8.02;2.35;;;;;;;6.31;100.00;102134.56;4928150;29;20059;-77
2022/05/08 03:02:09;;;;;;;8.95;2.67;;;;;;;6.30;100.00;102138.22;4903347;29;20036;-77
2022/05/08 03:04:35;;;;;;;8.30;2.33;;;;;;;6.16;100.00;102114.53;4886736;29;20546;-77
2022/05/08 03:07:02;;;;;;;5.07;2.20;;;;;;;6.26;100.00;102136.81;4918439;29;20067;-77
2022/05/08 03:09:28;;;;;;;6.53;2.30;;;;;;;6.26;100.00;102142.16;4886969;29;20050;-77
2022/05/08 03:11:53;;;;;;;7.00;2.33;;;;;;;5.95;100.00;102096.78;4886734;29;20036;-77
2022/05/08 03:14:20;;;;;;;5.00;1.95;;;;;;;6.14;100.00;102127.22;4901132;29;20083;-77
2022/05/08 03:16:46;;;;;;;4.53;2.30;;;;;;;6.18;100.00;102144.66;4919891;29;20123;-77
2022/05/08 03:19:13;;;;;;;8.23;2.25;;;;;;;5.37;100.00;101997.81;4887515;29;20055;-77
2022/05/08 03:21:40;;;;;;;9.43;2.63;;;;;;;6.35;100.00;102147.50;4904214;29;20034;-77
2022/05/08 03:24:07;;;;;;;6.28;1.98;;;;;;;6.38;100.00;102143.69;4902396;29;20058;-77
2022/05/08 03:26:32;;;;;;;7.82;2.75;;;;;;;6.45;100.00;102163.56;4885645;29;20068;-77
2022/05/08 03:28:58;;;;;;;7.28;2.38;;;;;;;6.07;100.00;102101.03;4886579;29;20036;-77
2022/05/08 03:31:23;;;;;;;6.18;2.00;;;;;;;6.42;100.00;102160.31;4902008;29;20083;-77
2022/05/08 03:33:49;;;;;;;7.95;2.15;;;;;;;6.43;100.00;102165.53;4885222;29;20028;-77
2022/05/08 03:36:15;;;;;;;6.43;2.05;;;;;;;6.51;100.00;102168.34;4918405;29;20047;-77
2022/05/08 03:38:45;;;;;;;6.25;2.15;;;;;;;6.62;100.00;102174.53;4885455;29;20032;-77
2022/05/08 03:41:15;;;;;;;8.77;2.28;;;;;;;6.94;100.00;102175.13;4913370;29;20028;-77
2022/05/08 03:43:44;;;;;;;6.97;1.85;;;;;;;7.37;100.00;102181.81;4898352;29;20032;-77
2022/05/08 03:46:09;;;;;;;8.35;2.38;;;;;;;7.32;100.00;102164.50;4915547;29;20035;-77
2022/05/08 03:48:36;;;;;;;5.20;1.52;;;;;;;7.39;100.00;102189.72;4901598;29;20079;-77
2022/05/08 03:51:01;;;;;;;5.03;2.05;;;;;;;7.41;100.00;102193.94;4900211;29;20020;-77
2022/05/08 03:53:26;;;;;;;3.95;1.80;;;;;;;7.46;100.00;102183.66;4901881;29;20369;-77
2022/05/08 03:55:52;;;;;;;6.55;1.70;;;;;;;8.05;100.00;102202.19;4918528;29;20031;-77
2022/05/08 03:58:17;;;;;;;5.40;1.67;;;;;;;8.75;100.00;102200.66;4884861;29;20032;-77
2022/05/08 04:00:43;;;;;;;4.65;1.88;;;;;;;8.92;100.00;102186.41;4918035;29;20031;-77
2022/05/08 04:03:08;;;;;;;6.05;2.03;;;;;;;9.12;100.00;102180.84;4901569;29;20024;-77
2022/05/08 04:05:33;;;;;;;6.53;2.03;;;;;;;9.25;100.00;102215.38;4901767;29;20123;-77
2022/05/08 04:07:59;;;;;;;6.03;1.90;;;;;;;9.31;100.00;102220.13;4937060;29;20039;-78
2022/05/08 04:10:24;;;;;;;6.18;1.55;;;;;;;9.45;100.00;102224.09;4885411;29;20035;-77
2022/05/08 04:12:49;;;;;;;3.83;1.23;;;;;;;9.43;100.00;102231.44;4900907;29;20131;-77
2022/05/08 04:17:59;;;;;;;3.40;1.30;;;;;;;9.92;100.00;102234.47;4901158;29;20158;-77
2022/05/08 04:20:25;;;;;;;4.35;1.08;;;;;;;10.15;100.00;102229.38;4885652;29;20028;-77
2022/05/08 04:25:36;;;;;;;3.78;1.10;;;;;;;9.80;100.00;102250.00;4885009;29;20040;-77
2022/05/08 04:28:02;;;;;;;4.15;1.10;;;;;;;9.68;100.00;102217.19;4919181;29;20533;-77
2022/05/08 04:30:28;;;;;;;1.85;0.82;;;;;;;10.07;100.00;102247.16;4884151;29;20039;-77
2022/05/08 04:32:53;;;;;;;2.90;1.05;;;;;;;9.96;100.00;102250.09;4900844;29;20476;-77
2022/05/08 04:35:19;;;;;;;3.28;1.00;;;;;;;9.75;100.00;102252.34;4884799;29;20374;-77
2022/05/08 04:37:44;;;;;;;2.67;1.48;;;;;;;10.14;100.00;102225.00;4869777;29;20080;-77
2022/05/08 04:40:11;;;;;;;2.45;1.00;;;;;;;10.41;100.00;102242.78;4901357;29;20769;-77
2022/05/08 04:42:36;;;;;;;2.80;1.20;;;;;;;10.62;100.00;102202.78;4900894;29;20047;-77
2022/05/08 04:45:02;;;;;;;2.00;0.88;;;;;;;10.80;99.70;102267.31;4884616;29;20032;-77
2022/05/08 04:47:28;;;;;;;2.08;0.80;;;;;;;10.79;97.76;102269.16;4884879;29;20074;-77
2022/05/08 04:49:54;;;;;;;3.55;0.90;;;;;;;10.70;96.23;102259.38;4899382;29;20028;-77
2022/05/08 04:52:19;;;;;;;2.90;0.90;;;;;;;9.60;95.60;102070.19;4915746;29;20131;-77
2022/05/08 04:54:44;;;;;;;2.45;0.93;;;;;;;10.73;94.03;102277.88;4900198;29;20032;-77
2022/05/08 04:57:10;;;;;;;3.30;0.95;;;;;;;10.38;94.50;102235.03;4901917;29;20028;-78
2022/05/08 04:59:35;;;;;;;3.45;0.70;;;;;;;10.79;93.10;102244.91;4900822;29;20036;-78
2022/05/08 05:02:02;;;;;;;1.63;0.70;;;;;;;11.17;90.67;102242.59;4899581;29;20029;-78
2022/05/08 05:04:28;;;;;;;3.58;0.88;;;;;;;11.85;87.25;102286.38;4895122;29;20072;-77
2022/05/08 05:06:53;;;;;;;2.35;0.75;;;;;;;11.59;87.23;102300.88;4849335;29;20036;-80
2022/05/08 05:09:19;;;;;;;1.95;0.57;;;;;;;11.36;86.33;102297.19;4879625;29;20141;-78
2022/05/08 05:11:44;;;;;;;1.65;0.70;;;;;;;11.01;86.12;102289.22;4884762;29;20033;-77
2022/05/08 05:14:09;;;;;;;1.40;0.50;;;;;;;10.85;86.85;102274.88;4867311;29;20045;-78
2022/05/08 05:16:35;;;;;;;1.20;0.60;;;;;;;10.34;86.83;102270.34;4865394;29;20036;-77
2022/05/08 05:19:00;;;;;;;1.45;0.70;;;;;;;10.57;84.66;102307.44;4867150;29;20037;-76
2022/05/08 05:21:25;;;;;;;3.13;0.80;;;;;;;10.52;82.97;102304.38;4848871;29;20067;-75
2022/05/08 05:23:51;;;;;;;3.97;0.80;;;;;;;10.46;82.76;102297.81;4890004;29;20060;-76
2022/05/08 05:26:16;;;;;;;1.17;0.50;;;;;;;10.10;82.80;102300.63;4889681;29;20048;-76
2022/05/08 05:28:43;;;;;;;0.95;0.40;;;;;;;9.79;86.37;102326.28;4882612;29;20033;-76
2022/05/08 05:31:09;;;;;;;1.80;0.50;;;;;;;9.51;89.74;102325.56;4866366;29;20065;-76
2022/05/08 05:33:36;;;;;;;1.58;0.50;;;;;;;9.07;89.69;102285.19;4880884;29;20032;-76
2022/05/08 05:36:01;;;;;;;2.30;0.60;;;;;;;9.23;90.65;102332.84;4882344;29;20045;-76
2022/05/08 05:38:26;;;;;;;2.45;0.60;;;;;;;9.40;90.87;102323.94;4866243;29;20134;-75
2022/05/08 05:40:52;;;;;;;1.27;0.45;;;;;;;8.85;88.64;102262.34;4880915;29;20029;-75
2022/05/08 05:43:17;;;;;;;2.20;0.50;;;;;;;9.37;87.82;102353.78;4883552;29;20040;-76
2022/05/08 05:45:42;;;;;;;0.82;0.50;;;;;;;9.39;88.82;102343.75;4882396;29;20390;-76
2022/05/08 05:48:08;;;;;;;1.27;0.50;;;;;;;9.60;88.56;102344.28;4865061;29;20033;-76
2022/05/08 05:50:34;;;;;;;3.22;0.60;;;;;;;9.67;88.50;102340.97;4866332;29;20128;-76
2022/05/08 05:52:59;;;;;;;1.98;0.60;;;;;;;9.74;89.23;102353.66;4880139;29;20081;-76
2022/05/08 05:55:25;;;;;;;0.75;0.50;;;;;;;9.28;89.21;102268.78;4879532;29;20044;-76
2022/05/08 05:57:50;;;;;;;1.77;0.57;;;;;;;9.46;88.60;102317.94;4881589;29;20052;-77
2022/05/08 06:00:17;;;;;;;2.15;0.50;;;;;;;9.80;88.87;102323.44;4879532;29;20033;-77
2022/05/08 06:02:45;;;;;;;3.50;0.63;;;;;;;9.95;89.27;102355.97;4882649;29;20029;-76
2022/05/08 06:05:11;;;;;;;1.55;0.50;;;;;;;9.89;88.90;102356.59;4881660;29;20055;-76
2022/05/08 06:07:38;;;;;;;1.50;0.60;;;;;;;9.99;89.95;102362.72;4866165;29;20097;-77
2022/05/08 06:10:06;;;;;;;1.48;0.55;;;;;;;9.94;89.39;102346.25;4897292;29;20423;-77
2022/05/08 06:12:32;;;;;;;2.33;0.60;;;;;;;10.07;88.91;102368.19;4886487;29;20033;-76
2022/05/08 06:14:58;;;;;;;0.77;0.50;;;;;;;9.97;89.23;102363.91;4893512;29;20043;-76
2022/05/08 06:17:29;;;;;;;0.90;0.60;;;;;;;9.71;89.17;102375.47;4881497;29;20459;-76
2022/05/08 06:19:54;;;;;;;2.17;0.70;;;;;;;9.79;89.87;102378.19;4880885;29;20029;-76
2022/05/08 06:22:20;;;;;;;1.05;0.50;;;;;;;9.93;88.67;102384.03;4882466;29;20056;-76
2022/05/08 06:24:45;;;;;;;2.65;0.70;;;;;;;10.01;89.10;102384.94;4866454;29;20408;-76
2022/05/08 06:27:12;;;;;;;1.25;0.70;;;;;;;9.96;89.39;102384.53;4881621;29;20040;-76
2022/05/08 06:29:37;;;;;;;2.47;0.60;;;;;;;10.00;88.92;102380.56;4865383;29;20059;-76
2022/05/08 06:32:03;;;;;;;1.17;0.50;;;;;;;10.16;88.64;102398.66;4882439;29;20062;-76
2022/05/08 06:34:29;;;;;;;2.13;0.50;;;;;;;10.04;87.60;102370.34;4880628;29;20041;-76
2022/05/08 06:36:54;;;;;;;1.42;0.63;;;;;;;10.39;88.23;102390.09;4882785;29;20396;-76
2022/05/08 06:39:21;;;;;;;3.13;0.95;;;;;;;10.05;87.74;102337.06;4882985;29;20143;-76
2022/05/08 06:41:47;;;;;;;1.98;1.02;;;;;;;10.33;89.06;102399.63;4865837;29;20100;-77
2022/05/08 06:44:15;;;;;;;1.50;0.70;;;;;;;10.22;88.84;102400.72;4866081;29;20457;-76
2022/05/08 06:46:40;;;;;;;1.27;0.57;;;;;;;10.52;88.42;102410.19;4883279;29;20036;-76
2022/05/08 06:49:07;;;;;;;4.15;0.70;;;;;;;10.69;86.90;102419.19;4884907;29;20044;-76
2022/05/08 06:51:34;;;;;;;2.35;0.70;;;;;;;10.55;87.21;102422.47;4891022;29;20066;-76
2022/05/08 06:54:00;;;;;;;1.00;0.50;;;;;;;10.61;87.80;102404.88;4865000;29;20476;-76
2022/05/08 06:56:26;;;;;;;3.17;0.90;;;;;;;10.50;87.27;102420.28;4882422;29;20044;-76
2022/05/08 07:01:36;;;;;;;1.02;0.55;;;;;;;10.67;86.55;102420.38;4880516;29;20073;-76
2022/05/08 07:04:09;;;;;;;2.03;0.80;;;;;;;11.05;86.94;102435.19;4880210;29;20057;-76
2022/05/08 07:06:35;;;;;;;2.60;0.60;;;;;;;10.86;86.17;102430.03;4880382;29;20051;-76
2022/05/08 07:09:00;;;;;;;1.10;0.50;;;;;;;10.79;85.49;102384.94;4880741;29;20043;-76
2022/05/08 07:11:26;;;;;;;1.25;0.50;;;;;;;11.12;84.85;102420.06;4862708;29;20111;-77
2022/05/08 07:13:52;;;;;;;2.78;0.55;;;;;;;11.22;83.50;102438.78;4874685;29;20054;-76
2022/05/08 07:16:17;;;;;;;2.03;0.57;;;;;;;11.31;82.77;102439.66;4879688;29;20060;-76
2022/05/08 07:18:42;;;;;;;2.45;0.80;;;;;;;11.04;81.02;102358.09;4893722;29;20037;-76
2022/05/08 07:21:08;;;;;;;1.05;0.50;;;;;;;11.44;80.71;102422.00;4879716;29;20043;-77
2022/05/08 07:23:33;;;;;;;1.75;0.57;;;;;;;11.51;79.17;102439.19;4880052;29;20025;-77
2022/05/08 07:25:59;;;;;;;2.00;0.50;;;;;;;11.53;78.34;102417.47;4893323;29;20060;-77
2022/05/08 07:28:25;;;;;;;1.33;0.50;;;;;;;11.58;78.41;102458.25;4895686;29;20045;-76
2022/05/08 07:30:50;;;;;;;3.00;0.50;;;;;;;11.72;76.85;102443.28;4894531;29;20044;-76
2022/05/08 07:33:16;;;;;;;2.20;0.60;;;;;;;11.74;74.34;102458.28;4892599;29;20037;-76
2022/05/08 07:38:30;;;;;;;3.63;0.85;;;;;;;12.13;63.41;102446.03;4880325;29;20097;-77
2022/05/08 07:40:56;;;;;;;1.45;0.50;;;;;;;11.95;62.74;102468.66;4874158;29;20028;-77
2022/05/08 07:43:22;;;;;;;3.20;0.75;;;;;;;12.10;62.33;102474.19;4880239;29;20097;-77
2022/05/08 07:45:47;;;;;;;1.55;0.60;;;;;;;11.68;60.43;102423.88;4877530;29;20025;-77
2022/05/08 07:48:12;;;;;;;1.15;0.60;;;;;;;12.11;59.85;102475.88;4893979;29;20127;-77
2022/05/08 07:50:38;;;;;;;1.33;0.60;;;;;;;12.02;57.94;102459.84;4848858;29;20092;-77
2022/05/08 07:53:04;;;;;;;1.40;0.60;;;;;;;11.70;57.56;102394.91;4887018;29;20037;-76
2022/05/08 07:55:29;;;;;;;2.03;0.70;;;;;;;12.27;57.00;102474.19;4883916;29;20020;-77
2022/05/08 07:57:55;;;;;;;1.98;0.50;;;;;;;12.44;56.37;102478.56;4896612;29;20029;-77
2022/05/08 08:00:20;;;;;;;1.92;0.60;;;;;;;12.46;55.04;102471.16;4877973;29;20033;-77
2022/05/08 08:02:46;;;;;;;2.03;0.40;;;;;;;12.53;55.86;102455.94;4895380;29;20025;-77
2022/05/08 08:05:11;;;;;;;0.82;0.50;;;;;;;12.48;52.86;102477.19;4878448;29;20365;-77
2022/05/08 08:07:37;;;;;;;1.90;0.60;;;;;;;12.48;52.50;102493.41;4896129;29;20029;-77
2022/05/08 08:10:04;;;;;;;1.33;0.57;;;;;;;12.54;51.79;102486.50;4876567;29;20029;-77
2022/05/08 08:12:30;;;;;;;2.65;0.50;;;;;;;12.31;49.42;102464.75;4876422;29;20033;-77
2022/05/08 08:14:56;;;;;;;2.58;0.57;;;;;;;12.37;49.60;102486.50;4890393;29;20044;-77
2022/05/08 08:17:22;;;;;;;1.15;0.35;;;;;;;12.49;49.26;102489.72;4875765;29;20037;-77
2022/05/08 08:19:47;;;;;;;0.98;0.50;;;;;;;12.62;47.09;102508.09;4885280;29;20033;-77
2022/05/08 08:22:13;;;;;;;0.75;0.40;;;;;;;12.28;46.27;102457.81;4880710;29;20025;-77
2022/05/08 08:24:40;;;;;;;2.42;0.50;;;;;;;12.56;44.98;102506.91;4894502;29;20101;-77
2022/05/08 08:27:07;;;;;;;2.10;0.50;;;;;;;12.05;44.13;102473.00;4895060;29;20739;-77
2022/05/08 08:29:34;;;;;;;1.38;0.45;;;;;;;12.12;43.67;102493.78;4876438;29;20049;-77
2022/05/08 08:31:59;;;;;;;2.30;0.63;;;;;;;12.31;44.20;102494.44;4895071;29;20029;-76
2022/05/08 08:34:26;;;;;;;0.98;0.50;;;;;;;12.79;44.57;102519.72;4863153;29;20033;-77
2022/05/08 08:36:52;;;;;;;1.75;0.45;;;;;;;12.68;43.43;102512.78;4879889;29;20029;-77
2022/05/08 08:39:17;;;;;;;2.05;0.50;;;;;;;13.01;43.69;102521.66;4878271;29;20071;-77
2022/05/08 08:41:52;;;;;;;3.33;0.40;;;;;;;12.89;42.09;102521.19;4878391;29;20471;-77
2022/05/08 08:49:52;;;;;;;1.08;0.47;;;;;;;13.19;42.38;102534.97;4878224;29;20044;-77
2022/05/08 08:52:21;;;;;;;2.67;0.50;;;;;;;12.95;41.73;102511.56;4878446;29;20041;-77
2022/05/08 08:54:46;;;;;;;1.15;0.43;;;;;;;13.11;41.87;102549.38;4877983;29;20033;-77
2022/05/08 08:57:12;;;;;;;1.52;0.50;;;;;;;13.24;42.17;102546.13;4861062;29;20051;-77
2022/05/08 08:59:37;;;;;;;0.88;0.50;;;;;;;13.19;41.57;102536.84;4863857;29;20115;-77
2022/05/08 09:02:13;;;;;;;4.30;0.60;;;;;;;13.27;41.57;102532.25;4877530;29;20049;-77
2022/05/08 09:04:38;;;;;;;1.73;0.60;;;;;;;13.45;41.94;102555.53;4897494;29;20061;-77
2022/05/08 09:07:04;;;;;;;2.00;0.63;;;;;;;13.39;42.81;102557.06;4880017;29;20033;-77
2022/05/08 09:09:33;;;;;;;1.70;0.60;;;;;;;13.42;43.30;102567.53;4877955;29;20033;-77
2022/05/08 09:11:59;;;;;;;1.02;0.50;;;;;;;13.37;42.77;102567.19;4878790;29;20101;-77
2022/05/08 09:14:29;;;;;;;1.20;0.40;;;;;;;13.44;42.05;102541.13;4878085;29;20392;-77
2022/05/08 09:16:55;;;;;;;1.50;0.80;;;;;;;13.69;41.61;102576.22;4881225;29;20066;-77
2022/05/08 09:19:37;;;;;;;2.17;0.50;;;;;;;13.51;40.06;102561.09;4878559;29;20029;-77
2022/05/08 09:22:04;;;;;;;1.48;0.57;;;;;;;13.47;40.90;102570.53;4878676;29;20040;-77
2022/05/08 09:24:32;;;;;;;0.73;0.40;;;;;;;13.51;40.68;102576.44;4878860;29;20025;-77
2022/05/08 09:27:15;;;;;;;3.95;0.55;;;;;;;13.46;40.75;102576.13;4863853;29;20032;-77
2022/05/08 09:29:42;;;;;;;1.20;0.50;;;;;;;13.27;40.08;102594.44;4879909;29;20109;-77
2022/05/08 09:32:08;;;;;;;1.30;0.73;;;;;;;13.25;41.12;102593.78;4879935;29;20040;-77
2022/05/08 09:34:59;;;;;;;1.52;0.50;;;;;;;13.42;40.36;102605.41;4879854;29;20135;-77
2022/05/08 09:37:25;;;;;;;2.08;0.60;;;;;;;13.67;40.61;102578.25;4879213;29;20021;-77
2022/05/08 09:39:51;;;;;;;1.80;0.77;;;;;;;13.82;40.40;102568.38;4868456;29;20029;-77
2022/05/08 09:42:38;;;;;;;3.10;0.70;;;;;;;13.97;40.09;102590.09;4878618;29;20025;-77
2022/05/08 09:45:09;;;;;;;1.23;0.38;;;;;;;13.83;39.04;102581.69;4877827;29;20644;-77
2022/05/08 09:47:47;;;;;;;1.45;0.68;;;;;;;13.89;39.63;102580.16;4876343;29;20053;-77
2022/05/08 09:50:14;;;;;;;0.90;0.50;;;;;;;14.07;40.58;102575.31;4878638;29;20357;-77
2022/05/08 09:52:41;;;;;;;1.58;0.50;;;;;;;13.82;38.43;102577.31;4877549;29;20029;-77
2022/05/08 09:55:08;;;;;;;1.23;0.57;;;;;;;13.67;38.70;102598.00;4867195;29;20057;-77
2022/05/08 09:57:34;;;;;;;1.70;0.50;;;;;;;13.75;37.77;102605.28;4865098;29;20471;-76
2022/05/08 10:00:01;;;;;;;2.50;0.60;;;;;;;13.77;36.77;102601.34;4882917;29;20025;-76
2022/05/08 10:02:26;;;;;;;1.40;0.63;;;;;;;13.73;38.14;102596.47;4881920;29;20029;-76
2022/05/08 10:04:52;;;;;;;4.57;0.50;;;;;;;13.69;37.42;102566.22;4882086;29;20499;-76
2022/05/08 10:07:19;;;;;;;1.58;0.32;;;;;;;13.84;36.73;102572.59;4891232;29;20032;-76
2022/05/08 10:15:34;;;;;;;1.85;0.50;;;;;;;13.87;36.70;102587.59;4878979;29;20043;-76
2022/05/08 10:18:29;;;;;;;;;;;;;;;13.86;36.77;102627.34;4892539;29;20100;-76
2022/05/08 10:21:20;;;;;;;2.25;0.70;;;;;;;13.75;34.54;102603.41;4882021;29;19915;-76
2022/05/08 10:23:46;;;;;;;1.52;0.40;;;;;;;13.82;35.16;102581.91;4878559;29;20471;-77
2022/05/08 10:26:16;;;;;;;1.75;0.40;;;;;;;14.23;35.24;102611.41;4858169;29;20047;-77
2022/05/08 10:29:03;;;;;;;1.20;0.40;;;;;;;14.35;32.36;102612.69;4880939;29;20021;-77
2022/05/08 10:31:50;;;;;;;1.80;0.50;;;;;;;14.64;35.02;102614.72;4880545;29;20040;-76
2022/05/08 10:34:31;;;;;;;3.35;0.50;;;;;;;14.49;33.15;102614.63;4882024;29;20052;-75
2022/05/08 10:37:12;;;;;;;2.05;0.50;;;;;;;14.45;33.15;102612.47;4881250;29;20029;-75
2022/05/08 10:39:38;;;;;;;1.20;0.60;;;;;;;14.56;33.85;102612.91;4897003;29;20089;-75
2022/05/08 10:42:04;;;;;;;1.23;0.40;;;;;;;14.46;33.12;102614.13;4879390;29;20057;-75
2022/05/08 10:44:34;;;;;;;1.02;0.35;;;;;;;14.69;33.32;102617.72;4895749;29;20073;-76
2022/05/08 10:47:40;;;;;;;1.05;0.55;;;;;;;14.54;32.19;102642.06;4899340;29;20344;-76
2022/05/08 10:50:13;;;;;;;1.02;0.30;;;;;;;14.36;32.56;102618.97;4896651;29;20024;-76
2022/05/08 10:52:45;;;;;;;1.63;0.60;;;;;;;14.74;33.69;102617.19;4899402;29;20160;-76
2022/05/08 10:55:14;;;;;;;1.80;0.43;;;;;;;14.56;33.71;102598.53;4885318;29;20033;-76
2022/05/08 10:57:41;;;;;;;1.55;0.50;;;;;;;14.49;32.80;102617.31;4880054;29;20048;-76
2022/05/08 11:00:09;;;;;;;2.33;0.60;;;;;;;14.89;33.64;102626.19;4865075;29;20120;-76
2022/05/08 11:02:52;;;;;;;1.75;0.50;;;;;;;14.93;32.52;102638.38;4879425;29;20027;-77
2022/05/08 11:05:38;;;;;;;3.42;0.63;;;;;;;15.00;32.85;102619.50;4885121;29;20061;-76
2022/05/08 11:08:04;;;;;;;2.05;0.40;;;;;;;14.96;33.37;102627.13;4880119;29;20366;-76
2022/05/08 11:10:31;;;;;;;0.93;0.40;;;;;;;15.12;33.91;102636.97;4880265;29;20036;-77
2022/05/08 11:13:01;;;;;;;2.17;0.40;;;;;;;14.78;33.19;102638.31;4882009;29;20439;-77
2022/05/08 11:15:28;;;;;;;1.50;0.40;;;;;;;14.56;33.55;102637.28;4895623;29;20036;-75
2022/05/08 11:18:02;;;;;;;1.05;0.50;;;;;;;14.33;33.79;102576.81;4894199;29;20032;-76
2022/05/08 11:20:27;;;;;;;1.73;0.40;;;;;;;14.62;33.89;102615.91;4877294;29;20065;-76
2022/05/08 11:22:56;;;;;;;1.30;0.50;;;;;;;14.48;32.83;102607.53;4881204;29;20105;-76
2022/05/08 11:25:22;;;;;;;1.10;0.50;;;;;;;14.83;33.84;102620.66;4879936;29;20336;-76
2022/05/08 11:27:55;;;;;;;2.15;0.50;;;;;;;14.56;32.42;102637.28;4881571;29;20057;-76
2022/05/08 11:30:27;;;;;;;0.88;0.40;;;;;;;14.88;32.34;102642.63;4879973;29;20108;-76
2022/05/08 11:36:05;;;;;;;1.13;0.40;;;;;;;15.07;32.84;102638.56;4833373;29;20465;-76
2022/05/08 11:38:52;;;;;;;2.10;0.40;;;;;;;15.23;32.06;102643.81;4876106;29;20052;-76
2022/05/08 11:41:18;;;;;;;5.03;0.60;;;;;;;15.00;32.51;102584.25;4894093;29;20066;-76
2022/05/08 11:43:49;;;;;;;1.00;0.50;;;;;;;15.22;32.74;102645.69;4894825;29;20468;-76
2022/05/08 11:46:16;;;;;;;2.65;0.50;;;;;;;15.23;32.38;102641.97;4883947;29;20029;-76
2022/05/08 11:48:47;;;;;;;2.97;0.50;;;;;;;15.35;31.63;102631.50;4881203;29;20044;-76
2022/05/08 11:51:20;;;;;;;0.95;0.43;;;;;;;15.26;30.76;102643.44;4880324;29;20032;-76
2022/05/08 11:53:47;;;;;;;2.33;0.60;;;;;;;15.13;31.36;102618.84;4879514;29;20041;-76